sensor_id;sensor_type;location;lat;lon;timestamp;temperature;humidity
10175;DHT22;18221;38.704;0.152;2022-08-03T00:11:03;26.40;99.90
10175;DHT22;18221;38.704;0.152;2022-08-03T00:13:33;26.40;99.90
10175;DHT22;18221;38.704;0.152;2022-08-03T00:16:03;26.40;99.90
10175;DHT22;18221;38.704;0.152;2022-08-03T00:18:31;26.40;99.90
10175;DHT22;18221;38.704;0.152;2022-08-03T00:20:59;26.30;99.90
10175;DHT22;18221;38.704;0.152;2022-08-03T00:23:27;26.30;99.90
10175;DHT22;18221;38.704;0.152;2022-08-03T00:25:55;26.30;99.90
10175;DHT22;18221;38.704;0.152;2022-08-03T00:28:23;25.90;99.90
10175;DHT22;18221;38.704;0.152;2022-08-03T00:30:51;26.30;99.90
10175;DHT22;18221;38.704;0.152;2022-08-03T00:33:22;26.30;99.90
10175;DHT22;18221;38.704;0.152;2022-08-03T00:35:51;26.30;99.90
10175;DHT22;18221;38.704;0.152;2022-08-03T00:38:19;26.30;99.90
10175;DHT22;18221;38.704;0.152;2022-08-03T00:40:47;26.20;99.90
10175;DHT22;18221;38.704;0.152;2022-08-03T00:43:15;26.30;99.90
10175;DHT22;18221;38.704;0.152;2022-08-03T00:45:43;26.20;99.90
10175;DHT22;18221;38.704;0.152;2022-08-03T00:48:11;26.20;99.90
10175;DHT22;18221;38.704;0.152;2022-08-03T00:50:41;26.20;99.90
10175;DHT22;18221;38.704;0.152;2022-08-03T00:53:10;26.20;99.90
10175;DHT22;18221;38.704;0.152;2022-08-03T00:55:39;26.20;99.90
10175;DHT22;18221;38.704;0.152;2022-08-03T00:58:07;26.20;99.90
10175;DHT22;18221;38.704;0.152;2022-08-03T01:00:37;26.20;99.90
10175;DHT22;18221;38.704;0.152;2022-08-03T01:03:07;26.20;99.90
10175;DHT22;18221;38.704;0.152;2022-08-03T01:05:43;26.20;99.90
10175;DHT22;18221;38.704;0.152;2022-08-03T01:08:22;26.20;99.90
10175;DHT22;18221;38.704;0.152;2022-08-03T01:11:06;26.10;99.90
10175;DHT22;18221;38.704;0.152;2022-08-03T01:13:50;26.10;99.90
10175;DHT22;18221;38.704;0.152;2022-08-03T01:16:29;26.10;99.90
10175;DHT22;18221;38.704;0.152;2022-08-03T01:19:16;26.10;99.90
10175;DHT22;18221;38.704;0.152;2022-08-03T01:22:19;26.00;99.90
10175;DHT22;18221;38.704;0.152;2022-08-03T01:25:08;26.00;99.90
10175;DHT22;18221;38.704;0.152;2022-08-03T01:27:57;26.00;99.90
10175;DHT22;18221;38.704;0.152;2022-08-03T01:30:42;25.90;99.90
10175;DHT22;18221;38.704;0.152;2022-08-03T01:33:16;25.90;99.90
10175;DHT22;18221;38.704;0.152;2022-08-03T01:35:52;25.90;99.90
10175;DHT22;18221;38.704;0.152;2022-08-03T01:38:27;26.00;99.90
10175;DHT22;18221;38.704;0.152;2022-08-03T01:41:03;26.00;99.90
10175;DHT22;18221;38.704;0.152;2022-08-03T01:43:36;26.00;99.90
10175;DHT22;18221;38.704;0.152;2022-08-03T01:46:08;26.10;99.90
10175;DHT22;18221;38.704;0.152;2022-08-03T01:48:39;26.10;99.90
10175;DHT22;18221;38.704;0.152;2022-08-03T01:51:10;26.10;99.90
10175;DHT22;18221;38.704;0.152;2022-08-03T01:53:40;26.20;99.90
10175;DHT22;18221;38.704;0.152;2022-08-03T01:56:09;26.20;99.90
10175;DHT22;18221;38.704;0.152;2022-08-03T01:58:40;26.20;99.90
10175;DHT22;18221;38.704;0.152;2022-08-03T02:01:12;26.20;99.90
10175;DHT22;18221;38.704;0.152;2022-08-03T02:03:43;26.20;99.90
10175;DHT22;18221;38.704;0.152;2022-08-03T02:06:13;26.30;99.90
10175;DHT22;18221;38.704;0.152;2022-08-03T02:08:44;26.30;99.90
10175;DHT22;18221;38.704;0.152;2022-08-03T02:11:14;26.20;99.90
10175;DHT22;18221;38.704;0.152;2022-08-03T02:13:43;26.20;99.90
10175;DHT22;18221;38.704;0.152;2022-08-03T02:16:17;26.10;99.90
10175;DHT22;18221;38.704;0.152;2022-08-03T02:18:48;26.10;99.90
10175;DHT22;18221;38.704;0.152;2022-08-03T02:21:17;26.00;99.90
10175;DHT22;18221;38.704;0.152;2022-08-03T02:23:46;26.00;99.90
10175;DHT22;18221;38.704;0.152;2022-08-03T02:26:14;26.00;99.90
10175;DHT22;18221;38.704;0.152;2022-08-03T02:28:48;26.00;99.90
10175;DHT22;18221;38.704;0.152;2022-08-03T02:31:23;26.00;99.90
10175;DHT22;18221;38.704;0.152;2022-08-03T02:34:00;26.00;99.90
10175;DHT22;18221;38.704;0.152;2022-08-03T02:36:35;26.00;99.90
10175;DHT22;18221;38.704;0.152;2022-08-03T02:39:08;25.90;99.90
10175;DHT22;18221;38.704;0.152;2022-08-03T02:41:42;25.90;99.90
10175;DHT22;18221;38.704;0.152;2022-08-03T02:44:19;25.90;99.90
10175;DHT22;18221;38.704;0.152;2022-08-03T02:46:54;25.80;99.90
10175;DHT22;18221;38.704;0.152;2022-08-03T02:49:27;25.80;99.90
10175;DHT22;18221;38.704;0.152;2022-08-03T02:51:57;25.80;99.90
10175;DHT22;18221;38.704;0.152;2022-08-03T02:54:27;25.80;99.90
10175;DHT22;18221;38.704;0.152;2022-08-03T02:56:57;25.70;99.90
10175;DHT22;18221;38.704;0.152;2022-08-03T02:59:27;25.60;99.90
10175;DHT22;18221;38.704;0.152;2022-08-03T03:01:59;25.60;99.90
10175;DHT22;18221;38.704;0.152;2022-08-03T03:04:29;25.60;99.90
10175;DHT22;18221;38.704;0.152;2022-08-03T03:06:58;25.60;99.90
10175;DHT22;18221;38.704;0.152;2022-08-03T03:09:27;25.60;99.90
10175;DHT22;18221;38.704;0.152;2022-08-03T03:11:56;25.60;99.90
10175;DHT22;18221;38.704;0.152;2022-08-03T03:14:26;25.60;99.90
10175;DHT22;18221;38.704;0.152;2022-08-03T03:16:54;25.60;99.90
10175;DHT22;18221;38.704;0.152;2022-08-03T03:19:24;25.60;99.90
10175;DHT22;18221;38.704;0.152;2022-08-03T03:21:53;25.60;99.90
10175;DHT22;18221;38.704;0.152;2022-08-03T03:24:22;25.50;99.90
10175;DHT22;18221;38.704;0.152;2022-08-03T03:26:51;25.50;99.90
10175;DHT22;18221;38.704;0.152;2022-08-03T03:29:20;25.50;99.90
10175;DHT22;18221;38.704;0.152;2022-08-03T03:31:49;25.50;99.90
10175;DHT22;18221;38.704;0.152;2022-08-03T03:34:17;25.50;99.90
10175;DHT22;18221;38.704;0.152;2022-08-03T03:36:47;25.50;99.90
10175;DHT22;18221;38.704;0.152;2022-08-03T03:39:15;25.50;99.90
10175;DHT22;18221;38.704;0.152;2022-08-03T03:41:43;25.50;99.90
10175;DHT22;18221;38.704;0.152;2022-08-03T03:44:11;25.50;99.90
10175;DHT22;18221;38.704;0.152;2022-08-03T03:46:39;25.50;99.90
10175;DHT22;18221;38.704;0.152;2022-08-03T03:49:08;25.40;99.90
10175;DHT22;18221;38.704;0.152;2022-08-03T03:51:36;25.40;99.90
10175;DHT22;18221;38.704;0.152;2022-08-03T03:54:06;25.40;99.90
10175;DHT22;18221;38.704;0.152;2022-08-03T03:56:33;25.40;99.90
10175;DHT22;18221;38.704;0.152;2022-08-03T03:59:01;25.40;99.90
10175;DHT22;18221;38.704;0.152;2022-08-03T04:01:30;25.40;99.90
10175;DHT22;18221;38.704;0.152;2022-08-03T04:03:59;25.30;99.90
10175;DHT22;18221;38.704;0.152;2022-08-03T04:06:47;25.30;99.90
10175;DHT22;18221;38.704;0.152;2022-08-03T04:09:34;25.30;99.90
10175;DHT22;18221;38.704;0.152;2022-08-03T04:12:22;25.20;99.90
10175;DHT22;18221;38.704;0.152;2022-08-03T04:14:54;25.20;99.90
10175;DHT22;18221;38.704;0.152;2022-08-03T04:17:27;25.10;99.90
10175;DHT22;18221;38.704;0.152;2022-08-03T04:19:57;25.20;99.90
10175;DHT22;18221;38.704;0.152;2022-08-03T04:22:28;25.20;99.90
10175;DHT22;18221;38.704;0.152;2022-08-03T04:25:03;25.10;99.90
10175;DHT22;18221;38.704;0.152;2022-08-03T04:27:37;25.10;99.90
10175;DHT22;18221;38.704;0.152;2022-08-03T04:30:08;25.10;99.90
10175;DHT22;18221;38.704;0.152;2022-08-03T04:32:38;25.10;99.90
10175;DHT22;18221;38.704;0.152;2022-08-03T04:35:07;25.10;99.90
10175;DHT22;18221;38.704;0.152;2022-08-03T04:37:38;25.10;99.90
10175;DHT22;18221;38.704;0.152;2022-08-03T04:40:14;25.10;99.90
10175;DHT22;18221;38.704;0.152;2022-08-03T04:42:47;25.10;99.90
10175;DHT22;18221;38.704;0.152;2022-08-03T04:45:17;25.10;99.90
10175;DHT22;18221;38.704;0.152;2022-08-03T04:47:47;25.10;99.90
10175;DHT22;18221;38.704;0.152;2022-08-03T04:50:17;25.10;99.90
10175;DHT22;18221;38.704;0.152;2022-08-03T04:52:46;25.10;99.90
10175;DHT22;18221;38.704;0.152;2022-08-03T04:55:26;25.10;99.90
10175;DHT22;18221;38.704;0.152;2022-08-03T04:57:54;25.10;99.90
10175;DHT22;18221;38.704;0.152;2022-08-03T05:00:22;25.10;99.90
10175;DHT22;18221;38.704;0.152;2022-08-03T05:02:51;25.10;99.90
10175;DHT22;18221;38.704;0.152;2022-08-03T05:05:20;25.10;99.90
10175;DHT22;18221;38.704;0.152;2022-08-03T05:07:49;25.00;99.90
10175;DHT22;18221;38.704;0.152;2022-08-03T05:10:17;25.10;99.90
10175;DHT22;18221;38.704;0.152;2022-08-03T05:12:47;25.00;99.90
10175;DHT22;18221;38.704;0.152;2022-08-03T05:15:16;25.10;99.90
10175;DHT22;18221;38.704;0.152;2022-08-03T05:17:44;25.10;99.90
10175;DHT22;18221;38.704;0.152;2022-08-03T05:20:12;25.10;99.90
10175;DHT22;18221;38.704;0.152;2022-08-03T05:22:40;25.10;99.90
10175;DHT22;18221;38.704;0.152;2022-08-03T05:25:08;25.10;99.90
10175;DHT22;18221;38.704;0.152;2022-08-03T05:27:36;25.10;99.90
10175;DHT22;18221;38.704;0.152;2022-08-03T05:30:06;25.10;99.90
10175;DHT22;18221;38.704;0.152;2022-08-03T05:32:35;25.10;99.90
10175;DHT22;18221;38.704;0.152;2022-08-03T05:35:03;25.10;99.90
10175;DHT22;18221;38.704;0.152;2022-08-03T05:37:32;25.10;99.90
10175;DHT22;18221;38.704;0.152;2022-08-03T05:40:00;25.20;99.90
10175;DHT22;18221;38.704;0.152;2022-08-03T05:42:28;25.20;99.90
10175;DHT22;18221;38.704;0.152;2022-08-03T05:44:56;25.20;99.90
10175;DHT22;18221;38.704;0.152;2022-08-03T05:47:26;25.20;99.90
10175;DHT22;18221;38.704;0.152;2022-08-03T05:49:54;25.30;99.90
10175;DHT22;18221;38.704;0.152;2022-08-03T05:52:21;25.30;99.90
10175;DHT22;18221;38.704;0.152;2022-08-03T05:54:49;25.30;99.90
10175;DHT22;18221;38.704;0.152;2022-08-03T05:57:17;25.30;99.90
10175;DHT22;18221;38.704;0.152;2022-08-03T05:59:45;25.30;99.90
10175;DHT22;18221;38.704;0.152;2022-08-03T06:02:13;25.30;99.90
10175;DHT22;18221;38.704;0.152;2022-08-03T06:04:42;25.30;99.90
10175;DHT22;18221;38.704;0.152;2022-08-03T06:07:10;25.40;99.90
10175;DHT22;18221;38.704;0.152;2022-08-03T06:09:38;25.40;99.90
10175;DHT22;18221;38.704;0.152;2022-08-03T06:12:07;25.40;99.90
10175;DHT22;18221;38.704;0.152;2022-08-03T06:14:35;25.40;99.90
10175;DHT22;18221;38.704;0.152;2022-08-03T06:17:02;25.40;99.90
10175;DHT22;18221;38.704;0.152;2022-08-03T06:19:30;25.40;99.90
10175;DHT22;18221;38.704;0.152;2022-08-03T06:22:00;25.40;99.90
10175;DHT22;18221;38.704;0.152;2022-08-03T06:24:28;25.50;99.90
10175;DHT22;18221;38.704;0.152;2022-08-03T06:26:56;25.50;99.90
10175;DHT22;18221;38.704;0.152;2022-08-03T06:29:24;25.60;99.90
10175;DHT22;18221;38.704;0.152;2022-08-03T06:31:52;25.80;99.90
10175;DHT22;18221;38.704;0.152;2022-08-03T06:34:20;25.90;99.90
10175;DHT22;18221;38.704;0.152;2022-08-03T06:36:48;26.10;99.90
10175;DHT22;18221;38.704;0.152;2022-08-03T06:39:18;26.20;99.90
10175;DHT22;18221;38.704;0.152;2022-08-03T06:41:47;26.40;99.90
10175;DHT22;18221;38.704;0.152;2022-08-03T06:44:15;26.40;99.90
10175;DHT22;18221;38.704;0.152;2022-08-03T06:46:42;26.50;99.90
10175;DHT22;18221;38.704;0.152;2022-08-03T06:49:10;26.50;99.90
10175;DHT22;18221;38.704;0.152;2022-08-03T06:51:38;26.60;99.90
10175;DHT22;18221;38.704;0.152;2022-08-03T06:54:06;26.60;99.90
10175;DHT22;18221;38.704;0.152;2022-08-03T06:56:37;26.60;99.90
10175;DHT22;18221;38.704;0.152;2022-08-03T06:59:05;26.60;99.90
10175;DHT22;18221;38.704;0.152;2022-08-03T07:01:33;26.60;99.90
10175;DHT22;18221;38.704;0.152;2022-08-03T07:04:01;26.60;99.90
10175;DHT22;18221;38.704;0.152;2022-08-03T07:06:29;26.70;99.90
10175;DHT22;18221;38.704;0.152;2022-08-03T07:08:56;26.70;99.90
10175;DHT22;18221;38.704;0.152;2022-08-03T07:11:24;26.70;99.90
10175;DHT22;18221;38.704;0.152;2022-08-03T07:13:54;26.80;99.90
10175;DHT22;18221;38.704;0.152;2022-08-03T07:16:22;26.90;99.90
10175;DHT22;18221;38.704;0.152;2022-08-03T07:18:50;26.90;99.90
10175;DHT22;18221;38.704;0.152;2022-08-03T07:21:18;27.00;99.90
10175;DHT22;18221;38.704;0.152;2022-08-03T07:23:46;27.00;99.90
10175;DHT22;18221;38.704;0.152;2022-08-03T07:26:14;27.10;99.90
10175;DHT22;18221;38.704;0.152;2022-08-03T07:28:42;27.10;99.90
10175;DHT22;18221;38.704;0.152;2022-08-03T07:31:11;27.20;99.90
10175;DHT22;18221;38.704;0.152;2022-08-03T07:33:39;27.30;99.90
10175;DHT22;18221;38.704;0.152;2022-08-03T07:36:07;27.30;99.90
10175;DHT22;18221;38.704;0.152;2022-08-03T07:38:35;27.50;99.90
10175;DHT22;18221;38.704;0.152;2022-08-03T07:41:03;27.60;99.90
10175;DHT22;18221;38.704;0.152;2022-08-03T07:43:31;27.80;99.90
10175;DHT22;18221;38.704;0.152;2022-08-03T07:45:59;27.90;99.90
10175;DHT22;18221;38.704;0.152;2022-08-03T07:48:28;28.10;99.90
10175;DHT22;18221;38.704;0.152;2022-08-03T07:50:57;28.20;99.90
10175;DHT22;18221;38.704;0.152;2022-08-03T07:53:25;28.40;99.90
10175;DHT22;18221;38.704;0.152;2022-08-03T07:55:53;28.60;99.90
10175;DHT22;18221;38.704;0.152;2022-08-03T07:58:21;28.60;99.90
10175;DHT22;18221;38.704;0.152;2022-08-03T08:00:49;28.90;99.90
10175;DHT22;18221;38.704;0.152;2022-08-03T08:03:18;29.00;99.90
10175;DHT22;18221;38.704;0.152;2022-08-03T08:05:49;29.20;99.90
10175;DHT22;18221;38.704;0.152;2022-08-03T08:08:18;29.20;99.90
10175;DHT22;18221;38.704;0.152;2022-08-03T08:10:47;29.30;99.90
10175;DHT22;18221;38.704;0.152;2022-08-03T08:13:16;29.60;99.90
10175;DHT22;18221;38.704;0.152;2022-08-03T08:15:44;29.50;99.90
10175;DHT22;18221;38.704;0.152;2022-08-03T08:18:12;29.60;99.90
10175;DHT22;18221;38.704;0.152;2022-08-03T08:20:40;29.70;99.90
10175;DHT22;18221;38.704;0.152;2022-08-03T08:23:09;29.60;99.90
10175;DHT22;18221;38.704;0.152;2022-08-03T08:25:37;29.50;99.90
10175;DHT22;18221;38.704;0.152;2022-08-03T08:28:06;29.50;99.90
10175;DHT22;18221;38.704;0.152;2022-08-03T08:30:34;29.40;99.90
10175;DHT22;18221;38.704;0.152;2022-08-03T08:33:02;29.60;99.90
10175;DHT22;18221;38.704;0.152;2022-08-03T08:35:30;29.70;99.90
10175;DHT22;18221;38.704;0.152;2022-08-03T08:37:59;29.90;99.90
10175;DHT22;18221;38.704;0.152;2022-08-03T08:40:29;29.70;99.90
10175;DHT22;18221;38.704;0.152;2022-08-03T08:42:57;29.60;99.90
10175;DHT22;18221;38.704;0.152;2022-08-03T08:45:25;29.50;99.90
10175;DHT22;18221;38.704;0.152;2022-08-03T08:47:54;29.50;99.90
10175;DHT22;18221;38.704;0.152;2022-08-03T08:50:25;29.50;99.90
10175;DHT22;18221;38.704;0.152;2022-08-03T08:52:53;29.30;99.90
10175;DHT22;18221;38.704;0.152;2022-08-03T08:55:23;29.20;99.90
10175;DHT22;18221;38.704;0.152;2022-08-03T08:57:58;29.30;99.90
10175;DHT22;18221;38.704;0.152;2022-08-03T09:00:31;29.30;99.90
10175;DHT22;18221;38.704;0.152;2022-08-03T09:03:00;29.40;99.90
10175;DHT22;18221;38.704;0.152;2022-08-03T09:05:28;29.40;99.90
10175;DHT22;18221;38.704;0.152;2022-08-03T09:07:57;29.00;99.90
10175;DHT22;18221;38.704;0.152;2022-08-03T09:10:26;29.40;99.90
10175;DHT22;18221;38.704;0.152;2022-08-03T09:12:55;29.40;99.90
10175;DHT22;18221;38.704;0.152;2022-08-03T09:15:24;29.30;99.90
10175;DHT22;18221;38.704;0.152;2022-08-03T09:17:56;29.20;99.90
10175;DHT22;18221;38.704;0.152;2022-08-03T09:20:27;29.30;99.90
10175;DHT22;18221;38.704;0.152;2022-08-03T09:22:57;29.50;99.90
10175;DHT22;18221;38.704;0.152;2022-08-03T09:25:31;29.70;99.90
10175;DHT22;18221;38.704;0.152;2022-08-03T09:28:08;29.80;99.90
10175;DHT22;18221;38.704;0.152;2022-08-03T09:30:38;29.80;99.90
10175;DHT22;18221;38.704;0.152;2022-08-03T09:33:08;29.80;99.90
10175;DHT22;18221;38.704;0.152;2022-08-03T09:35:41;29.80;99.90
10175;DHT22;18221;38.704;0.152;2022-08-03T09:38:13;29.80;99.90
10175;DHT22;18221;38.704;0.152;2022-08-03T09:40:43;29.80;99.90
10175;DHT22;18221;38.704;0.152;2022-08-03T09:43:13;29.80;99.90
10175;DHT22;18221;38.704;0.152;2022-08-03T09:45:42;29.80;99.90
10175;DHT22;18221;38.704;0.152;2022-08-03T09:48:28;30.00;99.90
10175;DHT22;18221;38.704;0.152;2022-08-03T09:50:59;30.10;99.90
10175;DHT22;18221;38.704;0.152;2022-08-03T09:53:29;30.20;99.90
10175;DHT22;18221;38.704;0.152;2022-08-03T09:55:59;30.10;99.90
10175;DHT22;18221;38.704;0.152;2022-08-03T09:58:30;30.10;99.90
10175;DHT22;18221;38.704;0.152;2022-08-03T10:00:59;30.00;99.90
10175;DHT22;18221;38.704;0.152;2022-08-03T10:03:30;29.80;99.90
10175;DHT22;18221;38.704;0.152;2022-08-03T10:06:14;29.90;99.90
10175;DHT22;18221;38.704;0.152;2022-08-03T10:08:44;29.90;99.90
10175;DHT22;18221;38.704;0.152;2022-08-03T10:11:12;29.80;99.90
10175;DHT22;18221;38.704;0.152;2022-08-03T10:13:59;29.80;99.90
10175;DHT22;18221;38.704;0.152;2022-08-03T10:16:33;29.70;99.90
10175;DHT22;18221;38.704;0.152;2022-08-03T10:19:03;29.60;99.90
10175;DHT22;18221;38.704;0.152;2022-08-03T10:21:34;29.70;99.90
10175;DHT22;18221;38.704;0.152;2022-08-03T10:24:05;29.70;99.90
10175;DHT22;18221;38.704;0.152;2022-08-03T10:26:38;29.80;99.90
10175;DHT22;18221;38.704;0.152;2022-08-03T10:29:11;30.00;99.90
10175;DHT22;18221;38.704;0.152;2022-08-03T10:31:45;30.20;99.90
10175;DHT22;18221;38.704;0.152;2022-08-03T10:34:21;30.40;99.90
10175;DHT22;18221;38.704;0.152;2022-08-03T10:36:52;30.50;99.90
10175;DHT22;18221;38.704;0.152;2022-08-03T10:39:28;30.50;99.90
10175;DHT22;18221;38.704;0.152;2022-08-03T10:41:57;30.50;99.90
10175;DHT22;18221;38.704;0.152;2022-08-03T10:44:31;30.40;99.90
10175;DHT22;18221;38.704;0.152;2022-08-03T10:47:04;30.50;99.90
10175;DHT22;18221;38.704;0.152;2022-08-03T10:49:32;30.50;99.90
10175;DHT22;18221;38.704;0.152;2022-08-03T10:52:01;30.50;99.90
10175;DHT22;18221;38.704;0.152;2022-08-03T10:54:40;30.50;99.90
10175;DHT22;18221;38.704;0.152;2022-08-03T10:57:45;30.40;99.90
10175;DHT22;18221;38.704;0.152;2022-08-03T11:00:17;30.50;99.90
10175;DHT22;18221;38.704;0.152;2022-08-03T11:03:07;30.50;99.90
10175;DHT22;18221;38.704;0.152;2022-08-03T11:05:40;30.50;99.90
10175;DHT22;18221;38.704;0.152;2022-08-03T11:08:29;30.60;99.90
10175;DHT22;18221;38.704;0.152;2022-08-03T11:11:02;30.60;99.90
10175;DHT22;18221;38.704;0.152;2022-08-03T11:13:57;30.90;99.90
10175;DHT22;18221;38.704;0.152;2022-08-03T11:16:30;30.90;99.90
10175;DHT22;18221;38.704;0.152;2022-08-03T11:19:02;31.00;99.90
10175;DHT22;18221;38.704;0.152;2022-08-03T11:21:56;31.10;99.90
10175;DHT22;18221;38.704;0.152;2022-08-03T11:24:56;31.00;99.90
10175;DHT22;18221;38.704;0.152;2022-08-03T11:27:32;31.10;99.90
10175;DHT22;18221;38.704;0.152;2022-08-03T11:30:03;31.20;99.90
10175;DHT22;18221;38.704;0.152;2022-08-03T11:32:53;31.40;99.90
10175;DHT22;18221;38.704;0.152;2022-08-03T11:35:25;31.40;99.90
10175;DHT22;18221;38.704;0.152;2022-08-03T11:38:09;31.40;99.90
10175;DHT22;18221;38.704;0.152;2022-08-03T11:40:40;31.40;99.90
10175;DHT22;18221;38.704;0.152;2022-08-03T11:46:13;31.40;99.90
10175;DHT22;18221;38.704;0.152;2022-08-03T11:48:48;31.40;99.90
10175;DHT22;18221;38.704;0.152;2022-08-03T11:51:21;31.60;99.90
10175;DHT22;18221;38.704;0.152;2022-08-03T11:53:52;31.50;99.90
10175;DHT22;18221;38.704;0.152;2022-08-03T11:56:21;31.40;99.90
10175;DHT22;18221;38.704;0.152;2022-08-03T11:58:52;31.40;99.90
10175;DHT22;18221;38.704;0.152;2022-08-03T12:01:22;31.60;99.90
10175;DHT22;18221;38.704;0.152;2022-08-03T12:03:52;31.50;99.90
10175;DHT22;18221;38.704;0.152;2022-08-03T12:06:20;31.50;99.90
10175;DHT22;18221;38.704;0.152;2022-08-03T12:08:49;31.70;99.90
10175;DHT22;18221;38.704;0.152;2022-08-03T12:11:17;31.70;99.90
10175;DHT22;18221;38.704;0.152;2022-08-03T12:13:46;31.70;99.90
10175;DHT22;18221;38.704;0.152;2022-08-03T12:16:19;31.70;99.90
10175;DHT22;18221;38.704;0.152;2022-08-03T12:18:56;31.90;99.90
10175;DHT22;18221;38.704;0.152;2022-08-03T12:21:25;31.80;99.90
10175;DHT22;18221;38.704;0.152;2022-08-03T12:23:56;31.70;99.90
10175;DHT22;18221;38.704;0.152;2022-08-03T12:26:25;31.90;99.90
10175;DHT22;18221;38.704;0.152;2022-08-03T12:28:54;32.00;99.90
10175;DHT22;18221;38.704;0.152;2022-08-03T12:31:23;31.80;99.90
10175;DHT22;18221;38.704;0.152;2022-08-03T12:34:02;31.70;99.90
10175;DHT22;18221;38.704;0.152;2022-08-03T12:36:34;31.60;99.90
10175;DHT22;18221;38.704;0.152;2022-08-03T12:39:05;31.50;99.90
10175;DHT22;18221;38.704;0.152;2022-08-03T12:41:37;31.60;99.90
10175;DHT22;18221;38.704;0.152;2022-08-03T12:44:06;31.90;99.90
10175;DHT22;18221;38.704;0.152;2022-08-03T12:46:36;31.90;99.90
10175;DHT22;18221;38.704;0.152;2022-08-03T12:49:09;31.90;99.90
10175;DHT22;18221;38.704;0.152;2022-08-03T12:51:55;31.80;99.90
10175;DHT22;18221;38.704;0.152;2022-08-03T12:54:26;31.80;99.90
10175;DHT22;18221;38.704;0.152;2022-08-03T12:56:57;32.00;99.90
10175;DHT22;18221;38.704;0.152;2022-08-03T12:59:27;31.90;99.90
10175;DHT22;18221;38.704;0.152;2022-08-03T13:01:57;31.80;99.90
10175;DHT22;18221;38.704;0.152;2022-08-03T13:04:28;31.50;99.90
10175;DHT22;18221;38.704;0.152;2022-08-03T13:06:58;31.70;99.90
10175;DHT22;18221;38.704;0.152;2022-08-03T13:09:28;31.90;99.90
10175;DHT22;18221;38.704;0.152;2022-08-03T13:12:05;32.10;99.90
10175;DHT22;18221;38.704;0.152;2022-08-03T13:14:34;32.00;99.90
10175;DHT22;18221;38.704;0.152;2022-08-03T13:17:02;31.80;99.90
10175;DHT22;18221;38.704;0.152;2022-08-03T13:19:33;31.80;99.90
10175;DHT22;18221;38.704;0.152;2022-08-03T13:22:10;31.90;99.90
10175;DHT22;18221;38.704;0.152;2022-08-03T13:24:39;31.80;99.90
10175;DHT22;18221;38.704;0.152;2022-08-03T13:27:07;31.80;99.90
10175;DHT22;18221;38.704;0.152;2022-08-03T13:29:35;32.10;99.90
10175;DHT22;18221;38.704;0.152;2022-08-03T13:32:04;32.10;99.90
10175;DHT22;18221;38.704;0.152;2022-08-03T13:34:34;32.50;99.90
10175;DHT22;18221;38.704;0.152;2022-08-03T13:37:03;32.50;99.90
10175;DHT22;18221;38.704;0.152;2022-08-03T13:39:31;32.40;99.90
10175;DHT22;18221;38.704;0.152;2022-08-03T13:41:59;32.50;99.90
10175;DHT22;18221;38.704;0.152;2022-08-03T13:44:27;32.50;99.90
10175;DHT22;18221;38.704;0.152;2022-08-03T13:46:55;32.40;99.90
10175;DHT22;18221;38.704;0.152;2022-08-03T13:49:25;32.30;99.90
10175;DHT22;18221;38.704;0.152;2022-08-03T13:51:55;32.50;99.90
10175;DHT22;18221;38.704;0.152;2022-08-03T13:54:23;32.60;99.90
10175;DHT22;18221;38.704;0.152;2022-08-03T13:56:51;32.70;99.90
10175;DHT22;18221;38.704;0.152;2022-08-03T13:59:19;32.80;99.90
10175;DHT22;18221;38.704;0.152;2022-08-03T14:01:48;32.60;99.90
10175;DHT22;18221;38.704;0.152;2022-08-03T14:04:17;32.60;99.90
10175;DHT22;18221;38.704;0.152;2022-08-03T14:06:46;32.70;99.90
10175;DHT22;18221;38.704;0.152;2022-08-03T14:09:15;32.80;99.90
10175;DHT22;18221;38.704;0.152;2022-08-03T14:11:44;32.80;99.90
10175;DHT22;18221;38.704;0.152;2022-08-03T14:14:12;32.60;99.90
10175;DHT22;18221;38.704;0.152;2022-08-03T14:16:40;32.60;99.90
10175;DHT22;18221;38.704;0.152;2022-08-03T14:19:08;32.60;99.90
10175;DHT22;18221;38.704;0.152;2022-08-03T14:21:36;32.70;99.90
10175;DHT22;18221;38.704;0.152;2022-08-03T14:24:05;32.50;99.90
10175;DHT22;18221;38.704;0.152;2022-08-03T14:26:35;32.60;99.90
10175;DHT22;18221;38.704;0.152;2022-08-03T14:29:03;32.30;99.90
10175;DHT22;18221;38.704;0.152;2022-08-03T14:31:31;32.30;99.90
10175;DHT22;18221;38.704;0.152;2022-08-03T14:33:59;32.50;99.90
10175;DHT22;18221;38.704;0.152;2022-08-03T14:36:27;32.30;99.90
10175;DHT22;18221;38.704;0.152;2022-08-03T14:38:55;32.20;99.90
10175;DHT22;18221;38.704;0.152;2022-08-03T14:41:23;32.40;99.90
10175;DHT22;18221;38.704;0.152;2022-08-03T14:43:52;32.40;99.90
10175;DHT22;18221;38.704;0.152;2022-08-03T14:46:21;32.40;99.90
10175;DHT22;18221;38.704;0.152;2022-08-03T14:48:49;32.50;99.90
10175;DHT22;18221;38.704;0.152;2022-08-03T14:51:17;32.40;99.90
10175;DHT22;18221;38.704;0.152;2022-08-03T14:53:45;32.50;99.90
10175;DHT22;18221;38.704;0.152;2022-08-03T14:56:13;32.30;99.90
10175;DHT22;18221;38.704;0.152;2022-08-03T14:58:41;32.30;99.90
10175;DHT22;18221;38.704;0.152;2022-08-03T15:01:11;32.10;99.90
10175;DHT22;18221;38.704;0.152;2022-08-03T15:03:38;32.30;99.90
10175;DHT22;18221;38.704;0.152;2022-08-03T15:06:06;32.40;99.90
10175;DHT22;18221;38.704;0.152;2022-08-03T15:08:34;32.50;99.90
10175;DHT22;18221;38.704;0.152;2022-08-03T15:11:03;32.30;99.90
10175;DHT22;18221;38.704;0.152;2022-08-03T15:13:31;32.30;99.90
10175;DHT22;18221;38.704;0.152;2022-08-03T15:15:58;32.30;99.90
10175;DHT22;18221;38.704;0.152;2022-08-03T15:18:28;32.20;99.90
10175;DHT22;18221;38.704;0.152;2022-08-03T15:20:56;32.30;99.90
10175;DHT22;18221;38.704;0.152;2022-08-03T15:23:24;32.50;99.90
10175;DHT22;18221;38.704;0.152;2022-08-03T15:25:52;32.30;99.90
10175;DHT22;18221;38.704;0.152;2022-08-03T15:28:20;32.20;99.90
10175;DHT22;18221;38.704;0.152;2022-08-03T15:30:51;32.00;99.90
10175;DHT22;18221;38.704;0.152;2022-08-03T15:33:19;32.00;99.90
10175;DHT22;18221;38.704;0.152;2022-08-03T15:35:48;31.80;99.90
10175;DHT22;18221;38.704;0.152;2022-08-03T15:38:17;32.10;99.90
10175;DHT22;18221;38.704;0.152;2022-08-03T15:40:47;32.10;99.90
10175;DHT22;18221;38.704;0.152;2022-08-03T15:43:15;32.10;99.90
10175;DHT22;18221;38.704;0.152;2022-08-03T15:45:43;31.90;99.90
10175;DHT22;18221;38.704;0.152;2022-08-03T15:48:11;32.00;99.90
10175;DHT22;18221;38.704;0.152;2022-08-03T15:50:39;32.00;99.90
10175;DHT22;18221;38.704;0.152;2022-08-03T15:53:09;32.00;99.90
10175;DHT22;18221;38.704;0.152;2022-08-03T15:55:37;32.10;99.90
10175;DHT22;18221;38.704;0.152;2022-08-03T15:58:06;31.90;99.90
10175;DHT22;18221;38.704;0.152;2022-08-03T16:00:33;32.00;99.90
10175;DHT22;18221;38.704;0.152;2022-08-03T16:03:02;32.10;99.90
10175;DHT22;18221;38.704;0.152;2022-08-03T16:05:30;31.90;99.90